Aérodrome :
LOGIN :

S'inscrire | Disclaimer

   EN    FR    IT 

 










Légende :    VFR   VFR Marginal   IFR   IFR Intensif   IFR Très Intensif
Visi : 
Plafond : 
>= 8 km
>= 3000ft
5 à 8 km
1000 à 3000 ft
1500m à 5 km
500 à 1000 ft
800 à 1500m
200 à 500 ft
< 800m
< 200 ft
Symboles :   Orages  Brouillard  Fortes neiges  Fortes précipitations  Vent > 20 kt
SIGMETs :   Divers  Orages  Givrage  Turbulence  Onde Orograph.  Cendres Volcan.






- Altitude de l'aérodrome : 989 ft
- Code IATA : TRN


LIMF - Torino Caselle

DERNIER METAR :
  • 080920Z 23003KT 8000 NSC 02/00 Q1011

METARs EXPIRÉS :
  • 080850Z 21003KT 8000 NSC 01/M01 Q1011
  • 080820Z 25002KT 7000 NSC 00/M01 Q1011
  • 080750Z 21003KT 7000 NSC M02/M03 Q1011
  • 080720Z VRB01KT CAVOK M02/M03 Q1011
  • 080650Z 23005KT CAVOK M01/M02 Q1011

TAF TAF LIMF
Valide du 08 à 06h jusqu'au 09 à 06h UTC


080500Z 0806/0906 VRB04KT 8000 NSC
TEMPO 0900/0906 4000 RASN



MET'MAP, la Météo Aéronautique d'un coup d'oeil ! - Copyright ORBIFLY Décembre 2007 - Disclaimer

ORBIFLY MET'MAP TEAM :

Programmation & Développement : Alexandra Zaïnal
Sur une idée originale de : Baudouin d'Aumeries
Soutien technique & logistique : Manuel Goepfert
Assistance : Marc-Olivier Méhu




SOURCES & CREDITS :

   NOAA